WetterOnline ( https://www.wetteronline.de )

Wetter aktuell Roth

Aktuelles Wetter: Roth (386m)

6-stündlich | Neueste Meldungen
Ortszeit Temperatur Wetter
Sa, 24.02. 1:00 1.7° C bewölkt
Fr, 23.02. 19:00 3.5° C bedeckt
Fr, 23.02. 13:00 6.0° C wolkig
Fr, 23.02. 7:00 4.3° C bedeckt
Fr, 23.02. 1:00 8.5° C bedeckt
Do, 22.02. 19:00 9.2° C leichter Regen
Do, 22.02. 13:00 10.4° C bedeckt
Do, 22.02. 7:00 7.3° C leichter Regen
Ortszeit Temperatur Wetter
Sa, 24.02. 2:30 -1.2° C leicht bewölkt
Sa, 24.02. 2:20 -1.2° C leicht bewölkt
Sa, 24.02. 2:10 -0.6° C bewölkt
Sa, 24.02. 2:00 0.0° C wolkig
Sa, 24.02. 1:50 0.0° C wolkig
Sa, 24.02. 1:40 0.5° C leicht bewölkt
Sa, 24.02. 1:30 1.7° C leicht bewölkt
Sa, 24.02. 1:00 1.7° C bewölkt
Sa, 24.02. 0:30 2.0° C bedeckt
Sa, 24.02. 0:00 1.8° C bedeckt
Fr, 23.02. 23:30 1.9° C bedeckt
Ortszeit Relative Feuchte Sichtweite
Sa, 24.02. 1:00 85% >70 km
Fr, 23.02. 19:00 82% 60 km
Fr, 23.02. 13:00 71% >70 km
Fr, 23.02. 7:00 85% >70 km
Fr, 23.02. 1:00 82% >70 km
Do, 22.02. 19:00 90% 20 km
Do, 22.02. 13:00 79% 60 km
Do, 22.02. 7:00 89% 35 km
Ortszeit Relative Feuchte Sichtweite
Sa, 24.02. 2:30 94% 50 km
Sa, 24.02. 2:20 94% -
Sa, 24.02. 2:10 92% -
Sa, 24.02. 2:00 92% >70 km
Sa, 24.02. 1:50 92% -
Sa, 24.02. 1:40 91% -
Sa, 24.02. 1:30 85% >70 km
Sa, 24.02. 1:00 85% >70 km
Sa, 24.02. 0:30 83% 65 km
Sa, 24.02. 0:00 84% 65 km
Fr, 23.02. 23:30 84% 60 km
Ortszeit Niederschlagsmenge Niederschlagsart
Sa, 24.02. 1:00 0.0 l/m2 in 6 Std. -
Fr, 23.02. 19:00 0.0 l/m2 in 12 Std. -
Fr, 23.02. 13:00 0.0 l/m2 in 6 Std. -
Fr, 23.02. 7:00 4 l/m2 in 12 Std. Regen
Fr, 23.02. 1:00 3 l/m2 in 6 Std. Regen
Do, 22.02. 19:00 5 l/m2 in 12 Std. Regen
Do, 22.02. 13:00 2 l/m2 in 6 Std. Regen
Do, 22.02. 7:00 2 l/m2 in 12 Std. Regen
Ortszeit Niederschlagsmenge Niederschlagsart
Sa, 24.02. 2:30 0.0 l/m2 in 30 Min -
Sa, 24.02. 2:20 keine Meldung -
Sa, 24.02. 2:10 keine Meldung -
Sa, 24.02. 2:00 0.0 l/m2 in 1 Std. -
Sa, 24.02. 1:50 keine Meldung -
Sa, 24.02. 1:40 keine Meldung -
Sa, 24.02. 1:30 0.0 l/m2 in 30 Min -
Sa, 24.02. 1:00 0.0 l/m2 in 1 Std. -
Sa, 24.02. 0:30 0.0 l/m2 in 30 Min -
Sa, 24.02. 0:00 0.0 l/m2 in 1 Std. -
Fr, 23.02. 23:30 0.0 l/m2 in 30 Min -
Ortszeit Stärke Spitze Richtung
km/h Bft. km/h Grad Sektor
Sa, 24.02. 1:00 9 2 19 150° SO
Fr, 23.02. 19:00 7 2 29 150° SO
Fr, 23.02. 13:00 17 3 26 220° SW
Fr, 23.02. 7:00 11 2 50 230° SW
Fr, 23.02. 1:00 20 4 72 250° W
Do, 22.02. 19:00 28 4 48 220° SW
Do, 22.02. 13:00 28 4 48 220° SW
Do, 22.02. 7:00 11 2 50 200° S
Ortszeit Stärke Spitze Richtung
km/h Bft. km/h Grad Sektor
Sa, 24.02. 2:30 4 1 7 140° SO
Sa, 24.02. 2:20 4 1 - 140° SO
Sa, 24.02. 2:10 4 1 - 230° SW
Sa, 24.02. 2:00 4 1 11 190° S
Sa, 24.02. 1:50 4 1 - 190° S
Sa, 24.02. 1:40 6 1 - 160° S
Sa, 24.02. 1:30 6 1 11 170° S
Sa, 24.02. 1:00 9 2 15 150° SO
Sa, 24.02. 0:30 7 2 14 180° S
Sa, 24.02. 0:00 4 1 11 170° S
Fr, 23.02. 23:30 7 2 11 130° SO
Ortszeit Untergrenze Bedeckung Gattung
total tief tief mittel hoch
Sa, 24.02. 1:00 5700 m 7/8 7/8 - - -
Fr, 23.02. 19:00 4500 m 8/8 8/8 - - -
Fr, 23.02. 13:00 630 m 7/8 4/8 - - -
Fr, 23.02. 7:00 3600 m 8/8 8/8 - - -
Fr, 23.02. 1:00 900 m 8/8 8/8 - - -
Do, 22.02. 19:00 1440 m 8/8 8/8 - - -
Do, 22.02. 13:00 570 m 8/8 8/8 - - -
Do, 22.02. 7:00 1170 m 7/8 7/8 - - -
Ortszeit Bedeckungsgrad in Achtel und Wolkenuntergrenze
Sa, 24.02. 2:30 4(6000m) 4(7800m)
Sa, 24.02. 2:20 4(6000m) 4(7800m)
Sa, 24.02. 2:10 7
Sa, 24.02. 2:00 6(6000m) 6(7500m)
Sa, 24.02. 1:50 6(6000m) 6(7500m)
Sa, 24.02. 1:40 4
Sa, 24.02. 1:30 2(6000m) 3(7200m)
Sa, 24.02. 1:00 6(5700m) 7(6300m)
Sa, 24.02. 0:30 8(5400m)
Sa, 24.02. 0:00 8(5400m)
Fr, 23.02. 23:30 8(5400m)
Ortszeit Luftdruck NN (hPa) Tendenz (hPa in 3 Std.)
Sa, 24.02. 1:00 1001 - 0,3
Fr, 23.02. 19:00 1001 - 0,3
Fr, 23.02. 13:00 1001 + 0,2
Fr, 23.02. 7:00 1000 + 0,9
Fr, 23.02. 1:00 995 + 2,5
Do, 22.02. 19:00 994 - 1,7
Do, 22.02. 13:00 999 - 2,4
Do, 22.02. 7:00 1004 - 2,2
Ortszeit Luftdruck NN (hPa) Tendenz (hPa in 3 Std.)
Sa, 24.02. 2:30 1002 0,0
Sa, 24.02. 2:20 1002 keine Meldung
Sa, 24.02. 2:10 1002 keine Meldung
Sa, 24.02. 2:00 1001 + 0,1
Sa, 24.02. 1:50 1001 keine Meldung
Sa, 24.02. 1:40 1001 keine Meldung
Sa, 24.02. 1:30 1001 + 0,1
Sa, 24.02. 1:00 1001 - 0,3
Sa, 24.02. 0:30 1001 + 0,1
Sa, 24.02. 0:00 1001 - 0,1
Fr, 23.02. 23:30 1001 + 0,3
Ortszeit Schneehöhe (cm)
Sa, 24.02. 1:00 0
Fr, 23.02. 19:00 0
Fr, 23.02. 13:00 0
Fr, 23.02. 7:00 0
Fr, 23.02. 1:00 0
Do, 22.02. 19:00 0
Do, 22.02. 13:00 0
Do, 22.02. 7:00 0
Ortszeit Schneehöhe (cm)
Sa, 24.02. 2:30 0
Sa, 24.02. 2:20 0
Sa, 24.02. 2:10 -
Sa, 24.02. 2:00 0
Sa, 24.02. 1:50 0
Sa, 24.02. 1:40 -
Sa, 24.02. 1:30 0
Sa, 24.02. 1:00 0
Sa, 24.02. 0:30 0
Sa, 24.02. 0:00 0
Fr, 23.02. 23:30 0
Link zu dieser Seite / Seite empfehlen

Das Wetter in ...